createdAt,value
2019-06-26T00:01:58.058Z,19.62
2019-06-26T00:04:28.404Z,19.47
2019-06-26T00:06:58.697Z,19.62
2019-06-26T00:09:29.952Z,19.61
2019-06-26T00:12:00.289Z,19.55
2019-06-26T00:14:31.020Z,19.41
2019-06-26T00:17:01.309Z,19.46
2019-06-26T00:19:31.645Z,19.60
2019-06-26T00:22:02.062Z,19.41
2019-06-26T00:24:32.328Z,19.51
2019-06-26T00:27:02.648Z,19.74
2019-06-26T00:29:33.133Z,19.54
2019-06-26T00:32:03.771Z,19.63
2019-06-26T00:34:34.048Z,19.84
2019-06-26T00:37:04.560Z,19.54
2019-06-26T00:39:36.292Z,19.79
2019-06-26T00:42:06.839Z,19.47
2019-06-26T00:44:37.216Z,19.61
2019-06-26T00:47:07.521Z,19.81
2019-06-26T00:49:38.188Z,19.84
2019-06-26T00:52:08.682Z,19.69
2019-06-26T00:54:38.968Z,19.63
2019-06-26T00:57:09.764Z,19.74
2019-06-26T00:59:40.393Z,19.82
2019-06-26T01:02:10.710Z,19.96
2019-06-26T01:04:44.022Z,19.78
2019-06-26T01:07:14.835Z,19.81
2019-06-26T01:09:45.096Z,19.74
2019-06-26T01:12:15.515Z,19.71
2019-06-26T01:14:45.824Z,19.91
2019-06-26T01:17:16.588Z,19.85
2019-06-26T01:19:47.072Z,19.96
2019-06-26T01:22:17.494Z,19.95
2019-06-26T01:24:48.266Z,19.93
2019-06-26T01:27:19.413Z,19.92
2019-06-26T01:29:50.609Z,19.97
2019-06-26T01:32:21.311Z,20.11
2019-06-26T01:34:52.020Z,19.90
2019-06-26T01:37:22.300Z,19.52
2019-06-26T01:39:52.690Z,19.54
2019-06-26T01:42:23.301Z,19.47
2019-06-26T01:44:53.621Z,19.50
2019-06-26T01:47:23.899Z,19.19
2019-06-26T01:49:54.261Z,19.35
2019-06-26T01:52:25.545Z,19.64
2019-06-26T01:54:55.851Z,19.69
2019-06-26T01:57:26.532Z,19.70
2019-06-26T01:59:57.039Z,19.62
2019-06-26T02:02:27.384Z,19.74
2019-06-26T02:04:58.028Z,19.72
2019-06-26T02:07:28.747Z,19.55
2019-06-26T02:09:59.012Z,19.69
2019-06-26T02:12:29.741Z,19.56
2019-06-26T02:15:00.116Z,19.70
2019-06-26T02:17:30.429Z,19.78
2019-06-26T02:20:00.766Z,19.66
2019-06-26T02:22:31.061Z,19.63
2019-06-26T02:25:01.742Z,19.83
2019-06-26T02:27:32.710Z,19.82
2019-06-26T02:30:03.006Z,19.89
2019-06-26T02:32:34.844Z,19.90
2019-06-26T02:35:09.367Z,20.03
2019-06-26T02:37:43.783Z,19.84
2019-06-26T02:40:14.353Z,19.76
2019-06-26T02:42:45.126Z,19.80
2019-06-26T02:45:15.946Z,19.63
2019-06-26T02:47:47.206Z,19.65
2019-06-26T02:50:17.575Z,19.68
2019-06-26T02:52:48.487Z,19.97
2019-06-26T02:55:19.049Z,19.85
2019-06-26T02:57:49.460Z,19.90
2019-06-26T03:00:19.753Z,19.94
2019-06-26T03:02:50.410Z,20.02
2019-06-26T03:05:20.673Z,19.88
2019-06-26T03:07:52.146Z,20.09
2019-06-26T03:10:22.757Z,20.13
2019-06-26T03:12:53.313Z,19.66
2019-06-26T03:15:23.581Z,19.53
2019-06-26T03:17:55.857Z,19.75
2019-06-26T03:20:29.280Z,19.63
2019-06-26T03:22:59.739Z,19.70
2019-06-26T03:25:30.004Z,19.89
2019-06-26T03:28:00.469Z,19.91
2019-06-26T03:30:30.974Z,19.67
2019-06-26T03:33:01.512Z,19.76
2019-06-26T03:35:31.768Z,19.66
2019-06-26T03:38:02.767Z,19.65
2019-06-26T03:40:33.402Z,19.97
2019-06-26T03:43:03.745Z,19.90
2019-06-26T03:45:34.528Z,19.55
2019-06-26T03:48:05.137Z,19.86
2019-06-26T03:50:35.412Z,19.79
2019-06-26T03:53:05.955Z,19.75
2019-06-26T03:55:36.736Z,20.01
2019-06-26T03:58:07.045Z,20.05
2019-06-26T04:00:40.442Z,20.20
2019-06-26T04:03:11.563Z,20.33
2019-06-26T04:05:41.891Z,20.36
2019-06-26T04:08:12.149Z,20.32
2019-06-26T04:10:43.592Z,20.48
2019-06-26T04:13:14.251Z,20.66
2019-06-26T04:15:44.496Z,20.86
2019-06-26T04:18:16.365Z,21.25
2019-06-26T04:20:47.750Z,21.39
2019-06-26T04:23:18.111Z,21.23
2019-06-26T04:25:48.753Z,21.26
2019-06-26T04:28:20.201Z,21.29
2019-06-26T04:30:50.822Z,21.21
2019-06-26T04:33:21.333Z,21.46
2019-06-26T04:35:51.607Z,21.60
2019-06-26T04:38:22.464Z,21.85
2019-06-26T04:40:53.121Z,21.91
2019-06-26T04:43:23.429Z,22.14
2019-06-26T04:45:58.566Z,22.19
2019-06-26T04:48:26.335Z,22.52
2019-06-26T04:50:57.574Z,22.16
2019-06-26T04:53:28.016Z,22.26
2019-06-26T04:55:58.701Z,22.52
2019-06-26T04:58:29.000Z,22.61
2019-06-26T05:00:59.638Z,22.75
2019-06-26T05:03:30.015Z,22.77
2019-06-26T05:06:00.707Z,22.90
2019-06-26T05:08:31.393Z,22.97
2019-06-26T05:11:01.679Z,23.15
2019-06-26T05:13:32.263Z,23.14
2019-06-26T05:16:14.142Z,23.05
2019-06-26T05:18:34.979Z,22.99
2019-06-26T05:21:05.467Z,22.96
2019-06-26T05:23:36.325Z,22.76
2019-06-26T05:26:06.704Z,23.00
2019-06-26T05:28:37.437Z,23.01
2019-06-26T05:31:08.143Z,23.10
2019-06-26T05:33:38.689Z,23.21
2019-06-26T05:36:09.423Z,23.32
2019-06-26T05:38:39.782Z,23.45
2019-06-26T05:41:10.047Z,23.28
2019-06-26T05:43:40.709Z,23.53
2019-06-26T05:46:11.047Z,23.68
2019-06-26T05:48:41.380Z,23.56
2019-06-26T05:51:12.042Z,23.60
2019-06-26T05:53:42.648Z,23.79
2019-06-26T05:56:12.950Z,23.99
2019-06-26T05:58:44.019Z,23.93
2019-06-26T06:01:14.686Z,23.82
2019-06-26T06:03:45.480Z,23.85
2019-06-26T06:06:15.758Z,23.89
2019-06-26T06:08:46.083Z,24.20
2019-06-26T06:11:16.877Z,24.29
2019-06-26T06:13:47.412Z,24.63
2019-06-26T06:16:17.695Z,24.45
2019-06-26T06:18:48.205Z,24.63
2019-06-26T06:21:18.991Z,24.53
2019-06-26T06:23:49.425Z,24.25
2019-06-26T06:26:20.378Z,24.48
2019-06-26T06:28:51.150Z,24.62
2019-06-26T06:31:21.425Z,24.72
2019-06-26T06:33:51.952Z,24.80
2019-06-26T06:36:22.331Z,24.98
2019-06-26T06:38:52.855Z,24.75
2019-06-26T06:41:23.378Z,24.58
2019-06-26T06:43:53.653Z,24.74
2019-06-26T06:46:24.070Z,24.45
2019-06-26T06:48:54.453Z,24.17
2019-06-26T06:51:24.736Z,24.75
2019-06-26T06:53:55.168Z,24.88
2019-06-26T06:56:25.718Z,24.79
2019-06-26T06:58:56.051Z,24.87
2019-06-26T07:01:26.332Z,24.77
2019-06-26T07:03:56.861Z,24.80
2019-06-26T07:06:27.130Z,25.00
2019-06-26T07:08:57.760Z,25.13
2019-06-26T07:11:28.237Z,25.28
2019-06-26T07:13:58.716Z,25.33
2019-06-26T07:16:29.423Z,25.26
2019-06-26T07:19:01.120Z,25.29
2019-06-26T07:21:31.436Z,25.16
2019-06-26T07:24:02.162Z,25.04
2019-06-26T07:26:32.497Z,25.04
2019-06-26T07:29:03.174Z,25.15
2019-06-26T07:31:33.754Z,25.07
2019-06-26T07:34:04.328Z,25.07
2019-06-26T07:36:34.574Z,25.05
2019-06-26T07:39:06.565Z,25.04
2019-06-26T07:41:36.960Z,25.10
2019-06-26T07:44:07.726Z,25.37
2019-06-26T07:46:37.990Z,25.27
2019-06-26T07:49:08.313Z,25.44
2019-06-26T07:51:39.061Z,25.64
2019-06-26T07:54:09.574Z,25.72
2019-06-26T07:56:39.849Z,25.72
2019-06-26T07:59:10.481Z,25.67
2019-06-26T08:01:41.311Z,25.78
2019-06-26T08:04:11.829Z,25.93
2019-06-26T08:06:42.539Z,25.80
2019-06-26T08:09:13.235Z,25.76
2019-06-26T08:11:43.547Z,25.83
2019-06-26T08:14:14.103Z,25.89
2019-06-26T08:16:44.799Z,26.05
2019-06-26T08:19:15.095Z,26.19
2019-06-26T08:21:46.742Z,26.09
2019-06-26T08:24:17.672Z,26.24
2019-06-26T08:26:48.078Z,26.22
2019-06-26T08:29:18.464Z,26.47
2019-06-26T08:31:49.002Z,26.48
2019-06-26T08:34:19.508Z,26.73
2019-06-26T08:36:49.787Z,26.81
2019-06-26T08:39:20.419Z,27.05
2019-06-26T08:41:51.105Z,26.95
2019-06-26T08:44:21.429Z,27.31
2019-06-26T08:46:51.724Z,27.24
2019-06-26T08:49:26.046Z,27.51
2019-06-26T08:51:55.073Z,27.35
2019-06-26T08:54:25.585Z,27.73
2019-06-26T08:56:55.910Z,27.64
2019-06-26T08:59:26.551Z,27.53
2019-06-26T09:01:57.217Z,27.63
2019-06-26T09:04:27.502Z,27.65
2019-06-26T09:06:58.081Z,27.89
2019-06-26T09:09:28.705Z,27.62
2019-06-26T09:11:58.953Z,27.61
2019-06-26T09:14:29.311Z,27.49
2019-06-26T09:16:59.592Z,27.75
2019-06-26T09:19:30.125Z,27.74
2019-06-26T09:22:00.736Z,27.99
2019-06-26T09:24:31.066Z,27.91
2019-06-26T09:27:01.635Z,27.50
2019-06-26T09:29:32.305Z,27.48
2019-06-26T09:32:02.654Z,27.66
2019-06-26T09:34:33.098Z,27.86
2019-06-26T09:37:03.731Z,27.70
2019-06-26T09:39:34.000Z,27.60
2019-06-26T09:42:04.320Z,27.68
2019-06-26T09:44:34.987Z,27.69
2019-06-26T09:47:05.282Z,27.91
2019-06-26T09:49:35.843Z,27.94
2019-06-26T09:52:06.162Z,27.65
2019-06-26T09:54:36.604Z,27.79
2019-06-26T09:57:07.302Z,27.91
2019-06-26T09:59:37.583Z,28.06
2019-06-26T10:02:07.879Z,27.90
2019-06-26T10:04:38.511Z,27.94
2019-06-26T10:07:08.869Z,27.69
2019-06-26T10:09:39.139Z,28.03
2019-06-26T10:12:09.759Z,28.32
2019-06-26T10:14:47.866Z,28.54
2019-06-26T10:17:13.224Z,28.59
2019-06-26T10:19:43.913Z,28.19
2019-06-26T10:22:14.245Z,28.68
2019-06-26T10:24:45.900Z,28.51
2019-06-26T10:27:16.185Z,28.87
2019-06-26T10:29:46.602Z,28.68
2019-06-26T10:32:17.341Z,28.99
2019-06-26T10:34:47.813Z,28.83
2019-06-26T10:37:18.133Z,29.39
2019-06-26T10:39:48.766Z,29.74
2019-06-26T10:42:19.092Z,29.87
2019-06-26T10:44:50.347Z,29.94
2019-06-26T10:47:20.981Z,30.19
2019-06-26T10:49:51.785Z,30.14
2019-06-26T10:52:22.101Z,30.70
2019-06-26T10:54:52.605Z,31.09
2019-06-26T10:57:22.918Z,31.07
2019-06-26T10:59:55.849Z,31.16
2019-06-26T11:02:25.885Z,31.46
2019-06-26T11:04:56.240Z,30.75
2019-06-26T11:07:26.958Z,30.47
2019-06-26T11:09:57.379Z,29.64
2019-06-26T11:12:27.647Z,29.43
2019-06-26T11:14:57.985Z,29.54
2019-06-26T11:17:28.784Z,29.52
2019-06-26T11:19:59.035Z,29.74
2019-06-26T11:22:29.319Z,30.22
2019-06-26T11:24:59.809Z,29.97
2019-06-26T11:27:30.436Z,29.41
2019-06-26T11:30:01.145Z,29.63
2019-06-26T11:32:31.534Z,29.30
2019-06-26T11:35:02.056Z,29.20
2019-06-26T11:37:32.698Z,29.67
2019-06-26T11:40:02.996Z,29.70
2019-06-26T11:42:33.352Z,29.54
2019-06-26T11:45:03.995Z,29.77
2019-06-26T11:47:34.301Z,29.39
2019-06-26T11:50:05.265Z,29.73
2019-06-26T11:52:35.916Z,29.49
2019-06-26T11:55:07.046Z,30.11
2019-06-26T11:57:39.073Z,30.72
2019-06-26T12:00:10.873Z,30.89
2019-06-26T12:02:41.235Z,30.86
2019-06-26T12:05:12.219Z,31.11
2019-06-26T12:07:42.480Z,31.30
2019-06-26T12:10:14.493Z,30.89
2019-06-26T12:12:45.304Z,30.86
2019-06-26T12:15:16.368Z,30.91
2019-06-26T12:17:46.639Z,31.11
2019-06-26T12:20:19.830Z,30.96
2019-06-26T12:22:50.342Z,30.96
2019-06-26T12:25:20.599Z,31.18
2019-06-26T12:27:51.374Z,31.18
2019-06-26T12:30:22.316Z,31.53
2019-06-26T12:33:02.865Z,31.96
2019-06-26T12:35:24.667Z,32.55
2019-06-26T12:37:55.415Z,33.18
2019-06-26T12:40:25.752Z,33.66
2019-06-26T12:42:56.058Z,33.52
2019-06-26T12:45:26.940Z,33.39
2019-06-26T12:47:57.289Z,33.15
2019-06-26T12:50:35.371Z,32.26
2019-06-26T12:53:00.155Z,32.11
2019-06-26T12:55:32.991Z,32.27
2019-06-26T12:58:13.155Z,32.61
2019-06-26T13:00:35.098Z,32.98
2019-06-26T13:03:06.144Z,33.48
2019-06-26T13:05:36.892Z,33.28
2019-06-26T13:08:07.152Z,33.04
2019-06-26T13:10:48.924Z,33.00
2019-06-26T13:13:09.485Z,32.58
2019-06-26T13:15:39.975Z,32.06
2019-06-26T13:18:10.286Z,32.01
2019-06-26T13:20:52.094Z,32.26
2019-06-26T13:23:14.894Z,32.53
2019-06-26T13:25:45.539Z,32.06
2019-06-26T13:28:16.197Z,32.16
2019-06-26T13:30:47.046Z,32.28
2019-06-26T13:33:17.531Z,32.41
2019-06-26T13:35:48.110Z,32.88
2019-06-26T13:38:18.422Z,32.55
2019-06-26T13:40:49.183Z,32.75
2019-06-26T13:43:19.564Z,32.34
2019-06-26T13:45:49.932Z,32.39
2019-06-26T13:48:20.604Z,32.75
2019-06-26T13:50:51.184Z,32.67
2019-06-26T13:53:22.655Z,32.78
2019-06-26T13:55:53.147Z,32.87
2019-06-26T13:58:23.952Z,33.14
2019-06-26T14:00:54.256Z,33.43
2019-06-26T14:03:24.568Z,33.56
2019-06-26T14:05:55.720Z,33.63
2019-06-26T14:08:26.476Z,33.95
2019-06-26T14:10:57.864Z,34.04
2019-06-26T14:13:28.157Z,34.67
2019-06-26T14:15:58.503Z,34.65
2019-06-26T14:18:30.490Z,34.81
2019-06-26T14:21:00.935Z,35.15
2019-06-26T14:23:31.270Z,34.85
2019-06-26T14:26:01.992Z,34.99
2019-06-26T14:28:32.254Z,34.20
2019-06-26T14:31:02.558Z,33.69
2019-06-26T14:33:33.301Z,34.21
2019-06-26T14:36:03.800Z,34.24
2019-06-26T14:38:34.144Z,34.39
2019-06-26T14:41:04.497Z,34.83
2019-06-26T14:43:34.844Z,35.29
2019-06-26T14:46:05.517Z,35.24
2019-06-26T14:48:35.777Z,35.87
2019-06-26T14:51:06.111Z,35.78
2019-06-26T14:53:36.819Z,36.22
2019-06-26T14:56:07.306Z,35.79
2019-06-26T14:58:37.650Z,34.40
2019-06-26T15:01:08.515Z,33.70
2019-06-26T15:03:39.203Z,34.18
2019-06-26T15:06:16.290Z,34.01
2019-06-26T15:08:41.589Z,34.56
2019-06-26T15:11:14.648Z,35.03
2019-06-26T15:13:44.245Z,35.05
2019-06-26T15:16:14.728Z,34.90
2019-06-26T15:18:45.033Z,34.41
2019-06-26T15:21:15.756Z,34.69
2019-06-26T15:27:10.672Z,34.89
2019-06-26T15:29:41.436Z,35.26
2019-06-26T15:32:12.151Z,35.39
2019-06-26T15:34:42.429Z,35.23
2019-06-26T15:37:12.773Z,35.33
2019-06-26T15:39:43.132Z,35.75
2019-06-26T15:42:13.452Z,35.47
2019-06-26T15:44:44.063Z,35.71
2019-06-26T15:47:14.339Z,36.03
2019-06-26T15:49:44.842Z,35.99
2019-06-26T15:52:15.766Z,36.25
2019-06-26T15:57:52.200Z,36.87
2019-06-26T16:00:23.071Z,36.72
2019-06-26T16:02:53.342Z,36.89
2019-06-26T16:05:23.667Z,36.84
2019-06-26T16:07:54.434Z,36.84
2019-06-26T16:10:24.819Z,36.20
2019-06-26T16:12:55.088Z,36.87
2019-06-26T16:15:25.809Z,36.27
2019-06-26T16:18:15.266Z,36.45
2019-06-26T16:20:46.948Z,36.35
2019-06-26T16:23:17.297Z,36.52
2019-06-26T16:25:47.889Z,36.41
2019-06-26T16:28:18.481Z,36.22
2019-06-26T16:30:48.804Z,36.07
2019-06-26T16:33:19.064Z,35.93
2019-06-26T16:35:49.645Z,36.12
2019-06-26T16:38:20.241Z,36.27
2019-06-26T16:40:50.780Z,36.38
2019-06-26T16:43:21.549Z,36.03
2019-06-26T16:45:52.144Z,35.67
2019-06-26T16:48:22.422Z,36.08
2019-06-26T16:50:53.324Z,35.76
2019-06-26T16:53:23.984Z,36.05
2019-06-26T16:55:54.424Z,35.74
2019-06-26T16:58:24.937Z,35.48
2019-06-26T17:00:55.691Z,35.62
2019-06-26T17:03:25.948Z,34.90
2019-06-26T17:05:56.290Z,35.11
2019-06-26T17:08:26.666Z,34.91
2019-06-26T17:10:57.020Z,34.88
2019-06-26T17:13:27.293Z,34.40
2019-06-26T17:15:58.094Z,34.17
2019-06-26T17:18:28.573Z,34.46
2019-06-26T17:20:59.302Z,34.00
2019-06-26T17:23:30.050Z,34.28
2019-06-26T17:26:00.424Z,34.27
2019-06-26T17:28:31.069Z,34.08
2019-06-26T17:31:01.348Z,34.13
2019-06-26T17:33:31.724Z,33.77
2019-06-26T17:36:02.489Z,33.58
2019-06-26T17:38:33.097Z,33.49
2019-06-26T17:41:03.393Z,33.03
2019-06-26T17:43:34.088Z,32.46
2019-06-26T17:46:04.902Z,32.10
2019-06-26T17:48:35.233Z,31.78
2019-06-26T17:51:06.108Z,31.63
2019-06-26T17:53:37.448Z,30.81
2019-06-26T17:56:08.429Z,30.87
2019-06-26T17:58:38.908Z,30.52
2019-06-26T18:01:09.234Z,30.04
2019-06-26T18:03:39.928Z,29.85
2019-06-26T18:06:10.292Z,29.34
2019-06-26T18:08:40.576Z,29.25
2019-06-26T18:11:11.442Z,29.18
2019-06-26T18:13:42.077Z,28.68
2019-06-26T18:16:12.358Z,28.68
2019-06-26T18:18:42.749Z,28.73
2019-06-26T18:21:13.405Z,28.49
2019-06-26T18:23:43.689Z,28.14
2019-06-26T18:26:14.536Z,28.12
2019-06-26T18:28:44.821Z,28.06
2019-06-26T18:31:15.555Z,27.91
2019-06-26T18:33:45.954Z,27.66
2019-06-26T18:36:16.221Z,27.52
2019-06-26T18:38:46.672Z,27.54
2019-06-26T18:41:18.647Z,27.50
2019-06-26T18:43:49.085Z,27.35
2019-06-26T18:46:19.364Z,27.22
2019-06-26T18:48:50.076Z,27.01
2019-06-26T18:51:20.352Z,26.95
2019-06-26T18:53:53.908Z,26.97
2019-06-26T18:56:22.981Z,26.74
2019-06-26T18:58:53.477Z,26.70
2019-06-26T19:01:24.180Z,26.58
2019-06-26T19:03:54.505Z,26.41
2019-06-26T19:06:25.745Z,26.72
2019-06-26T19:08:56.465Z,26.48
2019-06-26T19:11:26.787Z,26.39
2019-06-26T19:13:57.057Z,26.40
2019-06-26T19:16:27.765Z,26.26
2019-06-26T19:18:58.308Z,26.21
2019-06-26T19:21:28.576Z,26.15
2019-06-26T19:24:09.543Z,26.08
2019-06-26T19:26:31.978Z,26.05
2019-06-26T19:29:02.556Z,26.05
2019-06-26T19:31:32.903Z,26.06
2019-06-26T19:34:03.426Z,25.87
2019-06-26T19:36:49.119Z,25.90
2019-06-26T19:39:07.824Z,25.89
2019-06-26T19:41:38.209Z,25.89
2019-06-26T19:44:09.330Z,25.85
2019-06-26T19:46:42.055Z,25.84
2019-06-26T19:49:11.993Z,25.81
2019-06-26T19:51:42.605Z,25.65
2019-06-26T19:54:26.730Z,25.75
2019-06-26T19:56:45.133Z,25.71
2019-06-26T19:59:15.581Z,25.62
2019-06-26T20:01:45.881Z,25.69
2019-06-26T20:04:16.487Z,25.63
2019-06-26T20:06:46.881Z,25.70
2019-06-26T20:09:17.168Z,25.65
2019-06-26T20:11:47.949Z,25.52
2019-06-26T20:14:18.538Z,25.60
2019-06-26T20:16:48.909Z,25.51
2019-06-26T20:19:19.256Z,25.53
2019-06-26T20:21:50.027Z,25.32
2019-06-26T20:24:20.310Z,25.38
2019-06-26T20:26:50.636Z,25.43
2019-06-26T20:29:21.293Z,25.31
2019-06-26T20:31:51.594Z,25.23
2019-06-26T20:34:21.955Z,25.21
2019-06-26T20:36:53.209Z,25.01
2019-06-26T20:39:23.595Z,24.97
2019-06-26T20:41:54.254Z,24.85
2019-06-26T20:44:24.552Z,24.77
2019-06-26T20:46:54.843Z,24.68
2019-06-26T20:49:25.290Z,24.57
2019-06-26T20:51:55.620Z,24.49
2019-06-26T20:54:25.902Z,24.41
2019-06-26T20:56:56.628Z,24.36
2019-06-26T20:59:27.118Z,24.24
2019-06-26T21:01:57.442Z,24.21
2019-06-26T21:04:28.217Z,24.17
2019-06-26T21:06:59.212Z,24.05
2019-06-26T21:09:29.437Z,24.06
2019-06-26T21:12:00.641Z,23.98
2019-06-26T21:14:31.119Z,23.85
2019-06-26T21:17:01.428Z,23.69
2019-06-26T21:19:31.781Z,23.61
2019-06-26T21:22:02.490Z,23.68
2019-06-26T21:24:32.874Z,23.65
2019-06-26T21:27:03.194Z,23.41
2019-06-26T21:29:34.320Z,23.09
2019-06-26T21:32:04.621Z,23.26
2019-06-26T21:34:34.888Z,22.98
2019-06-26T21:37:05.703Z,23.08
2019-06-26T21:39:36.044Z,23.14
2019-06-26T21:42:06.760Z,22.86
2019-06-26T21:44:37.038Z,22.67
2019-06-26T21:47:07.357Z,22.51
2019-06-26T21:49:38.293Z,22.19
2019-06-26T21:52:08.548Z,21.79
2019-06-26T21:54:38.850Z,21.63
2019-06-26T21:57:27.417Z,21.36
2019-06-26T22:00:17.359Z,21.52
2019-06-26T22:03:05.888Z,21.32
2019-06-26T22:05:37.963Z,21.15
2019-06-26T22:08:22.485Z,20.95
2019-06-26T22:10:54.615Z,20.97
2019-06-26T22:13:24.979Z,20.67
2019-06-26T22:15:55.325Z,21.05
2019-06-26T22:18:27.421Z,20.60
2019-06-26T22:20:57.938Z,20.48
2019-06-26T22:23:28.265Z,20.61
2019-06-26T22:26:00.024Z,20.65
2019-06-26T22:28:30.796Z,20.33
2019-06-26T22:31:01.032Z,20.20
2019-06-26T22:33:31.812Z,20.20
2019-06-26T22:36:02.413Z,20.15
2019-06-26T22:38:32.718Z,20.28
2019-06-26T22:41:03.504Z,20.20
2019-06-26T22:43:33.776Z,20.32
2019-06-26T22:46:04.589Z,20.08
2019-06-26T22:48:35.261Z,19.98
2019-06-26T22:51:06.519Z,20.14
2019-06-26T22:53:37.163Z,20.12
2019-06-26T22:56:08.362Z,19.92
2019-06-26T22:58:39.154Z,19.94
2019-06-26T23:01:09.685Z,19.89
2019-06-26T23:03:40.395Z,18.27
2019-06-26T23:06:10.768Z,19.86
2019-06-26T23:08:41.085Z,19.92
2019-06-26T23:11:11.793Z,19.90
2019-06-26T23:13:43.091Z,19.90
2019-06-26T23:16:13.733Z,19.69
2019-06-26T23:18:44.095Z,19.67
2019-06-26T23:21:14.433Z,19.76
2019-06-26T23:23:45.133Z,19.68
2019-06-26T23:26:23.765Z,19.68
2019-06-26T23:28:47.531Z,19.55
2019-06-26T23:31:18.159Z,19.49
2019-06-26T23:33:48.470Z,19.46
2019-06-26T23:36:18.771Z,19.56
2019-06-26T23:38:49.601Z,19.49
2019-06-26T23:41:20.223Z,19.43
2019-06-26T23:43:51.595Z,19.35
2019-06-26T23:46:22.264Z,19.35
2019-06-26T23:48:52.802Z,19.36
2019-06-26T23:51:23.702Z,19.40
2019-06-26T23:53:53.995Z,19.38
2019-06-26T23:56:39.455Z,19.34
2019-06-26T23:58:56.478Z,19.29
